Time;durP1;ratioP1;P1;durP2;ratioP2;P2;SDS_P1;SDS_P2;PMS_P1;PMS_P2;Temp;Humidity;BMP_temperature;BMP_pressure;BME280_temperature;BME280_humidity;BME280_pressure;Samples;Min_cycle;Max_cycle;Signal;HPM_P1;HPM_P2
2023/11/12 00:01:02;;;;;;;11.07;5.55;;;;;;;6.51;100.00;100579.63;6073706;19;20373;-73
2023/11/12 00:03:07;;;;;;;9.68;5.15;;;;;;;6.44;100.00;100573.69;6077581;19;20007;-73
2023/11/12 00:05:12;;;;;;;12.50;6.43;;;;;;;6.42;100.00;100572.03;6077017;19;20014;-73
2023/11/12 00:07:20;;;;;;;11.60;6.25;;;;;;;6.37;100.00;100574.75;6076543;19;20011;-73
2023/11/12 00:09:25;;;;;;;11.85;5.07;;;;;;;6.31;100.00;100572.31;6077111;19;20038;-73
2023/11/12 00:11:35;;;;;;;12.63;5.50;;;;;;;6.23;100.00;100574.28;6077859;19;20462;-74
2023/11/12 00:13:40;;;;;;;10.00;4.85;;;;;;;6.18;100.00;100565.72;6076466;19;20142;-73
2023/11/12 00:15:48;;;;;;;17.85;6.28;;;;;;;6.08;100.00;100571.19;6077447;19;20038;-73
2023/11/12 00:17:53;;;;;;;20.58;7.88;;;;;;;6.06;100.00;100566.91;6078145;19;20003;-74
2023/11/12 00:19:58;;;;;;;18.52;7.60;;;;;;;5.99;100.00;100570.56;6077131;19;20468;-74
2023/11/12 00:22:01;;;;;;;20.45;9.15;;;;;;;5.96;100.00;100566.28;6076503;19;20430;-72
2023/11/12 00:24:11;;;;;;;19.08;7.93;;;;;;;5.85;100.00;100563.09;6076831;19;20015;-72
2023/11/12 00:26:21;;;;;;;16.45;6.93;;;;;;;5.81;100.00;100564.91;6076188;19;20357;-72
2023/11/12 00:28:27;;;;;;;17.33;6.82;;;;;;;5.80;100.00;100570.16;6076700;19;20003;-72
2023/11/12 00:30:32;;;;;;;11.95;6.28;;;;;;;5.74;100.00;100573.78;6075059;19;20003;-71
2023/11/12 00:32:37;;;;;;;14.73;5.97;;;;;;;5.72;100.00;100567.75;6073996;19;20034;-72
2023/11/12 00:34:42;;;;;;;13.15;5.97;;;;;;;5.64;100.00;100565.31;6076166;19;20002;-74
2023/11/12 00:36:47;;;;;;;15.07;5.18;;;;;;;5.65;100.00;100569.63;6078968;19;20046;-73
2023/11/12 00:38:52;;;;;;;10.52;4.75;;;;;;;5.60;100.00;100560.22;6078295;19;20557;-72
2023/11/12 00:41:00;;;;;;;10.88;5.25;;;;;;;5.54;100.00;100557.78;6080459;19;20010;-73
2023/11/12 00:43:05;;;;;;;11.43;5.15;;;;;;;5.44;100.00;100557.13;6082896;19;20082;-73
2023/11/12 00:45:11;;;;;;;13.80;5.95;;;;;;;5.40;100.00;100560.72;6081605;19;20042;-73
2023/11/12 00:47:16;;;;;;;12.40;5.75;;;;;;;5.33;100.00;100561.75;6078609;19;20605;-72
2023/11/12 00:49:21;;;;;;;14.95;6.78;;;;;;;5.24;100.00;100566.28;6081043;19;20074;-73
2023/11/12 00:51:24;;;;;;;11.13;5.60;;;;;;;5.23;100.00;100564.53;6082444;19;20351;-72
2023/11/12 00:53:30;;;;;;;12.40;6.18;;;;;;;5.20;100.00;100569.81;6078364;19;20006;-72
2023/11/12 00:55:35;;;;;;;16.05;6.60;;;;;;;5.16;100.00;100565.59;6082731;19;20042;-73
2023/11/12 00:57:43;;;;;;;11.60;6.15;;;;;;;5.12;100.00;100566.53;6085048;19;20089;-73
2023/11/12 00:59:49;;;;;;;11.60;6.20;;;;;;;5.03;100.00;100556.34;6080754;19;20031;-73
2023/11/12 01:01:54;;;;;;;12.27;6.85;;;;;;;4.93;100.00;100558.28;6080708;19;20014;-73
2023/11/12 01:04:00;;;;;;;17.00;6.20;;;;;;;4.95;100.00;100560.84;6079572;19;20017;-73
2023/11/12 01:06:04;;;;;;;12.02;5.65;;;;;;;4.94;100.00;100559.13;6079635;19;20038;-73
2023/11/12 01:08:09;;;;;;;13.27;5.68;;;;;;;4.92;100.00;100559.16;6078177;19;20009;-73
2023/11/12 01:10:14;;;;;;;16.45;5.22;;;;;;;4.99;100.00;100555.53;6078774;19;20484;-73
2023/11/12 01:12:23;;;;;;;10.13;4.82;;;;;;;4.94;100.00;100562.59;6079892;19;20013;-73
2023/11/12 01:14:28;;;;;;;11.80;5.32;;;;;;;4.94;100.00;100556.53;6082882;19;20019;-73
2023/11/12 01:16:37;;;;;;;15.93;5.15;;;;;;;4.87;100.00;100555.81;6082587;19;20034;-73
2023/11/12 01:18:45;;;;;;;9.95;4.85;;;;;;;4.92;100.00;100553.09;6073112;19;20010;-72
2023/11/12 01:20:51;;;;;;;11.50;5.35;;;;;;;4.96;100.00;100559.97;6084134;19;20423;-73
2023/11/12 01:22:56;;;;;;;12.70;5.57;;;;;;;4.91;100.00;100556.59;6081720;19;20006;-73
2023/11/12 01:25:01;;;;;;;9.18;5.07;;;;;;;4.80;100.00;100555.09;6082493;19;20013;-72
2023/11/12 01:27:07;;;;;;;10.70;6.07;;;;;;;4.76;100.00;100550.81;6081261;19;20446;-72
2023/11/12 01:29:10;;;;;;;11.18;5.57;;;;;;;4.74;100.00;100544.81;6082273;19;20364;-73
2023/11/12 01:31:18;;;;;;;;;;;;;;;4.78;100.00;100546.44;6076886;19;20006;-73
2023/11/12 01:33:23;;;;;;;10.82;5.90;;;;;;;4.82;100.00;100548.09;6080203;19;19914;-72
2023/11/12 01:35:28;;;;;;;11.80;4.75;;;;;;;4.80;100.00;100544.66;6080622;19;20006;-72
2023/11/12 01:37:33;;;;;;;14.43;5.28;;;;;;;4.71;100.00;100549.22;6082712;19;20007;-74
2023/11/12 01:39:38;;;;;;;9.10;4.80;;;;;;;4.70;100.00;100547.50;6082948;19;20007;-72
2023/11/12 01:41:44;;;;;;;15.23;5.80;;;;;;;4.68;100.00;100549.28;6082066;19;20007;-72
2023/11/12 01:43:52;;;;;;;10.10;4.97;;;;;;;4.64;100.00;100538.09;6079930;19;20462;-72
2023/11/12 01:45:57;;;;;;;11.38;4.85;;;;;;;4.59;100.00;100539.94;6081305;19;21495;-74
2023/11/12 01:48:08;;;;;;;13.15;4.90;;;;;;;4.57;100.00;100546.91;6079519;19;20034;-72
2023/11/12 01:50:15;;;;;;;10.13;5.30;;;;;;;4.64;100.00;100537.25;6076951;19;20038;-73
2023/11/12 01:52:21;;;;;;;10.25;5.30;;;;;;;4.67;100.00;100539.78;6078595;19;20007;-73
2023/11/12 01:54:28;;;;;;;13.68;5.65;;;;;;;4.70;100.00;100534.50;6078227;19;20007;-73
2023/11/12 01:56:34;;;;;;;12.00;5.63;;;;;;;4.83;100.00;100536.78;6081028;19;20859;-74
2023/11/12 01:58:44;;;;;;;11.90;5.95;;;;;;;4.90;100.00;100541.84;6080910;19;20390;-75
2023/11/12 02:00:49;;;;;;;10.48;5.38;;;;;;;4.84;100.00;100541.13;6081007;19;20478;-74
2023/11/12 02:02:57;;;;;;;11.10;5.20;;;;;;;4.81;100.00;100546.38;6078242;19;20375;-73
2023/11/12 02:05:06;;;;;;;14.45;6.18;;;;;;;4.81;100.00;100543.78;6076184;19;20472;-73
2023/11/12 02:07:13;;;;;;;11.35;5.82;;;;;;;4.76;100.00;100540.41;6081542;19;20034;-73
2023/11/12 02:09:20;;;;;;;12.30;6.07;;;;;;;4.79;100.00;100545.56;6081000;19;20121;-73
2023/11/12 02:11:25;;;;;;;11.98;5.97;;;;;;;4.76;100.00;100542.16;6080355;19;20582;-74
2023/11/12 02:13:30;;;;;;;15.05;5.82;;;;;;;4.72;100.00;100541.38;6081582;19;20034;-73
2023/11/12 02:15:36;;;;;;;16.33;6.35;;;;;;;4.73;100.00;100544.84;6081639;19;20010;-74
2023/11/12 02:17:41;;;;;;;15.15;6.10;;;;;;;4.74;100.00;100542.22;6079109;19;20010;-74
2023/11/12 02:19:48;;;;;;;14.48;6.10;;;;;;;4.77;100.00;100541.28;6077438;19;20034;-73
2023/11/12 02:21:56;;;;;;;11.60;5.82;;;;;;;4.82;100.00;100536.84;6078387;19;19999;-73
2023/11/12 02:24:03;;;;;;;12.40;6.82;;;;;;;4.79;100.00;100542.97;6073245;19;20006;-73
2023/11/12 02:26:09;;;;;;;17.35;6.35;;;;;;;4.82;100.00;100536.84;6076962;19;20009;-73
2023/11/12 02:28:15;;;;;;;10.38;5.50;;;;;;;4.87;100.00;100541.94;6078336;19;20103;-73
2023/11/12 02:30:20;;;;;;;15.10;6.82;;;;;;;4.90;100.00;100539.25;6080412;19;20226;-72
2023/11/12 02:32:26;;;;;;;14.82;7.28;;;;;;;4.93;100.00;100539.22;6076694;19;20034;-73
2023/11/12 02:34:31;;;;;;;11.93;6.53;;;;;;;5.08;100.00;100541.44;6079354;19;20011;-73
2023/11/12 02:36:35;;;;;;;13.07;6.07;;;;;;;5.11;100.00;100541.41;6081084;19;20027;-73
2023/11/12 02:38:40;;;;;;;11.95;6.25;;;;;;;5.21;100.00;100539.41;6080428;19;20588;-72
2023/11/12 02:40:47;;;;;;;11.05;6.30;;;;;;;5.45;100.00;100545.78;6081650;19;20007;-73
2023/11/12 02:42:52;;;;;;;18.15;7.35;;;;;;;5.49;100.00;100552.66;6081552;19;20484;-73
2023/11/12 02:44:57;;;;;;;11.40;6.72;;;;;;;5.48;100.00;100549.22;6074759;19;20037;-73
2023/11/12 02:46:59;;;;;;;23.45;7.35;;;;;;;5.45;100.00;100551.88;6080108;19;20022;-71
2023/11/12 02:49:33;;;;;;;15.88;7.18;;;;;;;5.43;100.00;100550.22;6074871;19;20453;-73
2023/11/12 02:51:38;;;;;;;;;;;;;;;5.39;100.00;100544.19;6079435;19;20015;-73
2023/11/12 02:53:43;;;;;;;11.23;6.07;;;;;;;5.37;100.00;100551.22;6077076;19;19993;-73
2023/11/12 02:55:51;;;;;;;13.25;6.95;;;;;;;5.40;100.00;100545.09;6079058;19;20015;-73
2023/11/12 02:57:53;;;;;;;17.08;7.57;;;;;;;5.40;100.00;100547.69;6081131;19;20018;-73
2023/11/12 02:59:59;;;;;;;15.27;7.00;;;;;;;5.39;100.00;100540.75;6077909;19;20019;-73
2023/11/12 03:02:04;;;;;;;17.25;7.25;;;;;;;5.36;100.00;100544.28;6076343;19;20003;-73
2023/11/12 03:04:06;;;;;;;14.63;6.97;;;;;;;5.36;100.00;100544.28;6079276;19;20002;-73
2023/11/12 03:06:12;;;;;;;18.75;8.00;;;;;;;5.37;100.00;100550.34;6078394;19;20582;-74
2023/11/12 03:08:17;;;;;;;14.90;7.25;;;;;;;5.38;100.00;100547.72;6079599;19;20081;-73
2023/11/12 03:10:22;;;;;;;13.90;7.30;;;;;;;5.36;100.00;100544.28;6078607;19;20002;-73
2023/11/12 03:12:32;;;;;;;15.40;6.57;;;;;;;5.36;100.00;100544.28;6078204;19;20034;-73
2023/11/12 03:14:37;;;;;;;14.82;7.28;;;;;;;5.35;100.00;100541.72;6080109;19;20093;-73
2023/11/12 03:16:43;;;;;;;12.68;6.30;;;;;;;5.35;100.00;100544.34;6075759;19;20003;-72
2023/11/12 03:18:50;;;;;;;18.42;7.57;;;;;;;5.35;100.00;100541.72;6078594;19;20441;-72
2023/11/12 03:20:55;;;;;;;13.95;6.60;;;;;;;5.38;100.00;100546.84;6078516;19;20489;-73
2023/11/12 03:23:00;;;;;;;14.35;6.85;;;;;;;5.34;100.00;100540.00;6074094;19;20007;-73
2023/11/12 03:25:08;;;;;;;14.93;6.82;;;;;;;5.36;100.00;100538.22;6076393;19;20038;-72
2023/11/12 03:27:13;;;;;;;16.00;7.40;;;;;;;5.39;100.00;100543.34;6079269;19;20038;-73
2023/11/12 03:29:22;;;;;;;14.57;6.47;;;;;;;5.42;100.00;100543.28;6077968;19;20007;-72
2023/11/12 03:31:25;;;;;;;11.65;6.50;;;;;;;5.41;100.00;100537.22;6081004;19;21446;-72
2023/11/12 03:33:32;;;;;;;15.48;6.35;;;;;;;5.47;100.00;100538.81;6075582;19;20357;-73
2023/11/12 03:35:37;;;;;;;14.13;5.75;;;;;;;5.47;100.00;100538.81;6079728;19;20118;-73
2023/11/12 03:37:42;;;;;;;12.75;7.50;;;;;;;5.45;100.00;100524.94;6081649;19;20007;-73
2023/11/12 03:39:47;;;;;;;15.60;7.43;;;;;;;5.45;100.00;100528.44;6084008;19;20455;-75
2023/11/12 03:41:52;;;;;;;15.52;6.72;;;;;;;5.43;100.00;100524.16;6086922;19;20010;-72
2023/11/12 03:43:56;;;;;;;13.75;6.68;;;;;;;5.41;100.00;100521.56;6084261;19;20007;-73
2023/11/12 03:46:04;;;;;;;14.55;7.18;;;;;;;5.35;100.00;100524.34;6084590;19;20495;-72
2023/11/12 03:48:10;;;;;;;17.30;7.25;;;;;;;5.33;100.00;100530.47;6079479;19;20002;-72
2023/11/12 03:50:15;;;;;;;15.07;7.00;;;;;;;5.31;100.00;100530.50;6083483;19;20802;-74
2023/11/12 03:52:21;;;;;;;14.50;7.22;;;;;;;5.31;100.00;100516.63;6081835;19;20010;-74
2023/11/12 03:54:23;;;;;;;18.52;10.52;;;;;;;5.26;100.00;100517.56;6082422;19;20034;-72
2023/11/12 03:56:28;;;;;;;17.70;8.75;;;;;;;5.21;100.00;100516.84;6084115;19;20010;-72
2023/11/12 03:58:35;;;;;;;15.43;7.82;;;;;;;5.18;100.00;100519.50;6080642;19;20006;-72
2023/11/12 04:00:40;;;;;;;11.55;6.95;;;;;;;5.19;100.00;100523.00;6076477;19;20010;-72
2023/11/12 04:02:51;;;;;;;18.52;7.15;;;;;;;5.18;100.00;100519.50;6076905;19;20006;-72
2023/11/12 04:04:56;;;;;;;26.75;10.65;;;;;;;5.18;100.00;100524.72;6076132;19;20512;-72
2023/11/12 04:07:01;;;;;;;22.23;10.25;;;;;;;5.17;100.00;100532.59;6074264;19;20003;-71
2023/11/12 04:09:03;;;;;;;16.55;8.93;;;;;;;5.18;100.00;100531.69;6076926;19;20022;-72
2023/11/12 04:11:08;;;;;;;13.52;7.30;;;;;;;5.18;100.00;100521.25;6075340;19;20003;-72
2023/11/12 04:13:13;;;;;;;17.80;7.57;;;;;;;5.19;100.00;100530.81;6073083;19;20015;-72
2023/11/12 04:15:19;;;;;;;17.15;8.45;;;;;;;5.22;100.00;100531.59;6077920;19;20022;-73
2023/11/12 04:17:24;;;;;;;20.73;8.90;;;;;;;5.19;100.00;100526.44;6078330;19;20007;-72
2023/11/12 04:19:32;;;;;;;20.40;8.05;;;;;;;5.19;100.00;100526.44;6078379;19;20843;-72
2023/11/12 04:21:37;;;;;;;19.08;9.07;;;;;;;5.22;100.00;100531.59;6079682;19;20009;-72
2023/11/12 04:23:44;;;;;;;14.70;8.02;;;;;;;5.22;100.00;100528.97;6078961;19;20048;-72
2023/11/12 04:25:51;;;;;;;19.05;8.13;;;;;;;5.23;100.00;100527.22;6075357;19;20390;-73
2023/11/12 04:28:01;;;;;;;16.08;8.48;;;;;;;5.25;100.00;100528.91;6073435;19;20929;-73
2023/11/12 04:30:05;;;;;;;17.80;7.45;;;;;;;5.24;100.00;100527.19;6075184;19;20003;-73
2023/11/12 04:32:10;;;;;;;18.75;9.40;;;;;;;5.31;100.00;100540.06;6073865;19;19998;-73
2023/11/12 04:34:16;;;;;;;16.55;9.10;;;;;;;5.34;100.00;100540.84;6069574;19;20470;-73
2023/11/12 04:36:25;;;;;;;18.23;8.10;;;;;;;5.37;100.00;100534.72;6075718;19;20674;-72
2023/11/12 04:38:31;;;;;;;18.50;8.60;;;;;;;5.37;100.00;100529.50;6073950;19;20192;-73
2023/11/12 04:40:36;;;;;;;15.65;7.95;;;;;;;5.35;100.00;100531.31;6074573;19;20020;-72
2023/11/12 04:42:42;;;;;;;22.92;10.23;;;;;;;5.36;100.00;100533.00;6073674;19;20533;-73
2023/11/12 04:44:47;;;;;;;16.08;8.23;;;;;;;5.31;100.00;100537.47;6075891;19;20100;-73
2023/11/12 04:46:52;;;;;;;18.42;10.02;;;;;;;5.31;100.00;100534.84;6074363;19;20006;-73
2023/11/12 04:48:58;;;;;;;20.08;8.30;;;;;;;5.27;100.00;100529.72;6079156;19;20046;-73
2023/11/12 04:51:03;;;;;;;23.42;9.15;;;;;;;5.27;100.00;100540.16;6070818;19;20568;-73
2023/11/12 04:53:11;;;;;;;17.98;8.40;;;;;;;5.26;100.00;100548.00;6074357;19;20077;-73
2023/11/12 04:55:19;;;;;;;15.80;8.80;;;;;;;5.23;100.00;100546.31;6079191;19;21033;-72
2023/11/12 04:57:24;;;;;;;18.85;9.07;;;;;;;5.22;100.00;100546.38;6081214;19;20010;-73
2023/11/12 04:59:29;;;;;;;21.75;10.00;;;;;;;5.32;100.00;100552.19;6079044;19;20554;-73
2023/11/12 05:01:34;;;;;;;18.00;9.18;;;;;;;5.32;100.00;100552.19;6079676;19;20703;-73
2023/11/12 05:03:36;;;;;;;19.20;8.50;;;;;;;5.36;100.00;100559.06;6077721;19;20005;-74
2023/11/12 05:05:41;;;;;;;21.75;9.43;;;;;;;5.37;100.00;100552.94;6076779;19;20478;-73
2023/11/12 05:07:47;;;;;;;21.63;9.63;;;;;;;5.35;100.00;100552.16;6081391;19;20300;-73
2023/11/12 05:09:55;;;;;;;20.75;10.30;;;;;;;5.34;100.00;100553.03;6079223;19;20023;-73
2023/11/12 05:12:00;;;;;;;16.90;8.38;;;;;;;5.33;100.00;100544.34;6082147;19;20007;-73
2023/11/12 05:14:03;;;;;;;19.65;8.88;;;;;;;5.34;100.00;100555.63;6081239;19;20011;-73
2023/11/12 05:16:09;;;;;;;18.65;9.20;;;;;;;5.35;100.00;100552.16;6080832;19;19999;-74
2023/11/12 05:18:15;;;;;;;19.90;9.18;;;;;;;5.35;100.00;100553.00;6078259;19;20007;-73
2023/11/12 05:20:20;;;;;;;16.30;8.90;;;;;;;5.34;100.00;100546.06;6080737;19;20007;-73
2023/11/12 05:22:25;;;;;;;22.40;9.48;;;;;;;5.34;100.00;100543.44;6080921;19;20006;-73
2023/11/12 05:24:30;;;;;;;25.70;10.25;;;;;;;5.36;100.00;100543.44;6080342;19;20553;-72
2023/11/12 05:26:38;;;;;;;22.80;9.55;;;;;;;5.38;100.00;100550.31;6078734;19;20010;-72
2023/11/12 05:28:44;;;;;;;20.33;9.90;;;;;;;5.38;100.00;100555.53;6078793;19;20003;-73
2023/11/12 05:30:49;;;;;;;22.88;10.18;;;;;;;5.38;100.00;100550.31;6079499;19;20011;-73
2023/11/12 05:32:55;;;;;;;21.20;10.20;;;;;;;5.38;100.00;100557.28;6079289;19;20015;-73
2023/11/12 05:35:00;;;;;;;17.40;8.68;;;;;;;5.36;100.00;100556.47;6074568;19;20010;-74
2023/11/12 05:37:06;;;;;;;20.55;9.05;;;;;;;5.34;100.00;100553.88;6078392;19;20002;-72
2023/11/12 05:39:12;;;;;;;19.65;9.48;;;;;;;5.31;100.00;100559.16;6074812;19;20329;-73
2023/11/12 05:41:17;;;;;;;19.80;10.50;;;;;;;5.26;100.00;100564.47;6075830;19;20069;-73
2023/11/12 05:43:25;;;;;;;18.85;11.02;;;;;;;5.26;100.00;100563.63;6080629;19;20407;-72
2023/11/12 05:45:30;;;;;;;24.33;11.10;;;;;;;5.24;100.00;100566.28;6076417;19;20349;-73
2023/11/12 05:47:35;;;;;;;22.42;11.93;;;;;;;5.20;100.00;100568.97;6080643;19;20007;-73
2023/11/12 05:49:40;;;;;;;20.98;10.82;;;;;;;5.18;100.00;100562.94;6077811;19;20019;-74
2023/11/12 05:51:42;;;;;;;26.27;12.13;;;;;;;5.14;100.00;100566.53;6079062;19;20006;-73
2023/11/12 05:53:47;;;;;;;27.30;12.23;;;;;;;5.19;100.00;100564.66;6078347;19;20361;-73
2023/11/12 05:55:52;;;;;;;20.25;11.65;;;;;;;5.18;100.00;100558.59;6074616;19;20070;-74
2023/11/12 05:57:57;;;;;;;27.23;12.52;;;;;;;5.14;100.00;100562.16;6078014;19;20497;-73
2023/11/12 06:00:10;;;;;;;30.42;11.60;;;;;;;5.11;100.00;100562.25;6076593;19;20486;-73
2023/11/12 06:02:12;;;;;;;22.10;10.77;;;;;;;5.11;100.00;100567.44;6077832;19;20006;-74
2023/11/12 06:04:20;;;;;;;18.45;10.45;;;;;;;5.07;100.00;100565.78;6077017;19;20440;-73
2023/11/12 06:06:25;;;;;;;24.13;10.70;;;;;;;5.11;100.00;100567.44;6073049;19;20002;-73
2023/11/12 06:08:31;;;;;;;24.48;11.32;;;;;;;5.12;100.00;100568.28;6079163;19;20670;-73
2023/11/12 06:10:33;;;;;;;26.60;12.40;;;;;;;5.14;100.00;100563.91;6076795;19;20673;-73
2023/11/12 06:12:39;;;;;;;20.25;10.38;;;;;;;5.15;100.00;100570.81;6078460;19;20007;-73
2023/11/12 06:14:44;;;;;;;22.30;10.98;;;;;;;5.14;100.00;100580.41;6080357;19;20002;-73
2023/11/12 06:16:55;;;;;;;25.33;10.90;;;;;;;5.14;100.00;100572.59;6078184;19;20011;-73
2023/11/12 06:19:00;;;;;;;22.00;10.93;;;;;;;5.16;100.00;100573.41;6079015;19;20725;-73
2023/11/12 06:21:08;;;;;;;23.98;11.57;;;;;;;5.17;100.00;100574.25;6078805;19;20082;-73
2023/11/12 06:23:13;;;;;;;19.52;10.32;;;;;;;5.19;100.00;100582.91;6074509;19;20518;-72
2023/11/12 06:25:22;;;;;;;26.80;12.38;;;;;;;5.20;100.00;100577.66;6081675;19;20006;-72
2023/11/12 06:27:27;;;;;;;28.33;11.68;;;;;;;5.23;100.00;100579.31;6079995;19;20003;-73
2023/11/12 06:29:32;;;;;;;21.35;10.20;;;;;;;5.30;100.00;100573.09;6079092;19;20370;-72
2023/11/12 06:31:36;;;;;;;27.65;12.20;;;;;;;5.34;100.00;100581.69;6079330;19;20494;-73
2023/11/12 06:33:44;;;;;;;27.80;12.98;;;;;;;5.36;100.00;100574.69;6079585;19;20066;-73
2023/11/12 06:35:49;;;;;;;27.02;13.00;;;;;;;5.37;100.00;100581.59;6079218;19;20073;-73
2023/11/12 06:37:54;;;;;;;24.95;11.60;;;;;;;5.38;100.00;100583.34;6078599;19;20081;-73
2023/11/12 06:39:59;;;;;;;25.20;11.70;;;;;;;5.38;100.00;100586.78;6083787;19;20051;-73
2023/11/12 06:42:05;;;;;;;25.63;12.93;;;;;;;5.41;100.00;100589.31;6083573;19;20605;-73
2023/11/12 06:44:07;;;;;;;27.80;13.13;;;;;;;5.46;100.00;100589.22;6087018;19;20410;-74
2023/11/12 06:46:16;;;;;;;27.90;10.90;;;;;;;5.44;100.00;100588.41;6079468;19;20014;-74
2023/11/12 06:48:22;;;;;;;21.77;10.65;;;;;;;5.47;100.00;100583.09;6081690;19;20010;-74
2023/11/12 06:50:29;;;;;;;20.33;10.85;;;;;;;5.43;100.00;100591.91;6080572;19;20504;-74
2023/11/12 06:52:32;;;;;;;22.33;11.90;;;;;;;5.43;100.00;100592.75;6078656;19;20014;-73
2023/11/12 06:54:37;;;;;;;30.52;12.93;;;;;;;5.45;100.00;100587.50;6074676;19;20015;-73
2023/11/12 06:56:42;;;;;;;25.38;11.95;;;;;;;5.44;100.00;100589.25;6078728;19;20007;-74
2023/11/12 06:58:44;;;;;;;20.40;11.93;;;;;;;5.55;100.00;100581.19;6078062;19;20502;-73
2023/11/12 07:00:50;;;;;;;23.52;12.57;;;;;;;5.59;100.00;100585.44;6079905;19;20034;-73
2023/11/12 07:02:55;;;;;;;23.55;11.93;;;;;;;5.59;100.00;100582.81;6077090;19;20016;-74
2023/11/12 07:04:58;;;;;;;23.25;12.18;;;;;;;5.57;100.00;100584.59;6078238;19;20262;-74
2023/11/12 07:07:06;;;;;;;24.85;12.38;;;;;;;5.65;100.00;100582.66;6073783;19;20003;-74
2023/11/12 07:09:20;;;;;;;30.75;13.10;;;;;;;5.67;100.00;100591.31;6071237;19;20044;-73
2023/11/12 07:11:25;;;;;;;29.67;14.10;;;;;;;5.70;100.00;100591.22;6074149;19;20050;-73
2023/11/12 07:13:30;;;;;;;25.50;12.68;;;;;;;5.70;100.00;100591.22;6075507;19;20007;-73
2023/11/12 07:15:33;;;;;;;23.45;12.98;;;;;;;5.69;100.00;100591.28;6079039;19;20006;-74
2023/11/12 07:17:38;;;;;;;;;;;;;;;5.66;100.00;100600.03;6076307;19;20140;-73
2023/11/12 07:19:44;;;;;;;27.58;12.38;;;;;;;5.67;100.00;100596.53;6078181;19;21764;-73
2023/11/12 07:21:51;;;;;;;23.55;11.63;;;;;;;5.67;100.00;100599.13;6075947;19;20475;-73
2023/11/12 07:24:00;;;;;;;32.13;14.05;;;;;;;5.70;100.00;100603.41;6078446;19;20007;-73
2023/11/12 07:26:05;;;;;;;26.08;11.07;;;;;;;5.72;100.00;100597.28;6077689;19;20042;-73
2023/11/12 07:28:10;;;;;;;32.35;14.23;;;;;;;5.73;100.00;100596.38;6075845;19;20017;-73
2023/11/12 07:30:16;;;;;;;28.95;14.25;;;;;;;5.72;100.00;100597.28;6076787;19;20009;-73
2023/11/12 07:32:20;;;;;;;31.92;11.98;;;;;;;5.70;100.00;100599.06;6076548;19;20014;-73
2023/11/12 07:34:26;;;;;;;32.03;12.48;;;;;;;5.70;100.00;100603.41;6073126;19;20559;-73
2023/11/12 07:36:31;;;;;;;29.40;13.90;;;;;;;5.66;100.00;100610.47;6076654;19;20014;-73
2023/11/12 07:38:35;;;;;;;22.92;11.43;;;;;;;5.70;100.00;100609.47;6076058;19;20005;-73
2023/11/12 07:40:43;;;;;;;27.58;14.40;;;;;;;5.70;100.00;100604.28;6074259;19;20482;-72
2023/11/12 07:42:48;;;;;;;26.65;12.60;;;;;;;5.70;100.00;100604.28;6072920;19;20026;-74
2023/11/12 07:44:51;;;;;;;25.23;12.68;;;;;;;5.70;100.00;100609.47;6074565;19;21214;-73
2023/11/12 07:47:07;;;;;;;27.10;12.00;;;;;;;5.78;100.00;100613.66;6076454;19;20596;-74
2023/11/12 07:49:12;;;;;;;27.45;12.43;;;;;;;5.75;100.00;100619.81;6074604;19;20094;-73
2023/11/12 07:51:17;;;;;;;26.73;13.13;;;;;;;5.81;100.00;100624.88;6078278;19;20010;-74
2023/11/12 07:53:22;;;;;;;19.23;11.50;;;;;;;5.83;100.00;100628.31;6066612;19;20034;-73
2023/11/12 07:55:29;;;;;;;26.17;12.95;;;;;;;5.85;100.00;100626.53;6077358;19;20015;-73
2023/11/12 07:57:38;;;;;;;25.92;12.32;;;;;;;5.93;100.00;100623.72;6079003;19;20038;-73
2023/11/12 07:59:43;;;;;;;31.77;13.57;;;;;;;5.96;100.00;100622.81;6075471;19;20756;-74
2023/11/12 08:01:50;;;;;;;27.90;14.57;;;;;;;6.02;100.00;100626.13;6077735;19;20018;-75
2023/11/12 08:03:55;;;;;;;38.80;15.07;;;;;;;6.06;100.00;100630.38;6076386;19;20739;-72
2023/11/12 08:06:00;;;;;;;31.90;14.80;;;;;;;6.10;100.00;100623.31;6075037;19;20014;-73
2023/11/12 08:08:05;;;;;;;30.40;14.82;;;;;;;6.08;100.00;100628.59;6074867;19;20007;-73
2023/11/12 08:10:11;;;;;;;35.63;15.60;;;;;;;6.08;100.00;100622.50;6079647;19;20011;-71
2023/11/12 08:12:16;;;;;;;29.45;14.77;;;;;;;6.10;100.00;100625.94;6080078;19;20483;-71
2023/11/12 08:14:24;;;;;;;30.80;14.02;;;;;;;6.14;100.00;100631.03;6079234;19;20006;-72
2023/11/12 08:16:29;;;;;;;38.85;17.08;;;;;;;6.15;100.00;100627.53;6078251;19;20090;-70
2023/11/12 08:18:37;;;;;;;33.15;14.93;;;;;;;6.19;100.00;100628.31;6080224;19;20566;-73
2023/11/12 08:20:42;;;;;;;33.28;17.05;;;;;;;6.18;100.00;100629.19;6079854;19;20013;-73
2023/11/12 08:22:47;;;;;;;36.35;16.20;;;;;;;6.21;100.00;100631.72;6076321;19;20007;-73
2023/11/12 08:24:53;;;;;;;31.00;14.60;;;;;;;6.27;100.00;100625.50;6078347;19;20430;-73
2023/11/12 08:26:59;;;;;;;39.97;15.55;;;;;;;6.29;100.00;100623.69;6076796;19;20078;-73
2023/11/12 08:29:01;;;;;;;32.20;13.70;;;;;;;6.30;100.00;100623.66;6074751;19;20376;-73
2023/11/12 08:31:09;;;;;;;33.92;14.50;;;;;;;6.28;100.00;100627.22;6076731;19;20403;-74
2023/11/12 08:33:15;;;;;;;30.35;15.23;;;;;;;6.36;100.00;100627.88;6076435;19;20006;-72
2023/11/12 08:35:20;;;;;;;38.55;15.40;;;;;;;6.50;100.00;100632.72;6075019;19;20003;-72
2023/11/12 08:37:26;;;;;;;33.92;15.57;;;;;;;6.55;100.00;100628.22;6072072;19;20002;-71
2023/11/12 08:39:31;;;;;;;35.83;15.88;;;;;;;6.60;100.00;100642.84;6075680;19;20034;-74
2023/11/12 08:41:37;;;;;;;32.80;15.90;;;;;;;6.63;100.00;100641.06;6077437;19;20007;-75
2023/11/12 08:43:44;;;;;;;43.17;16.27;;;;;;;6.73;100.00;100639.91;6074871;19;20015;-73
2023/11/12 08:45:49;;;;;;;35.25;16.00;;;;;;;6.69;100.00;100640.88;6074743;19;20078;-71
2023/11/12 08:48:01;;;;;;;28.80;14.65;;;;;;;6.76;100.00;100634.59;6074794;19;20014;-74
2023/11/12 08:50:07;;;;;;;30.58;14.18;;;;;;;6.81;100.00;100640.56;6074429;19;20110;-74
2023/11/12 08:52:14;;;;;;;35.97;14.52;;;;;;;6.81;100.00;100637.94;6073701;19;20002;-74
2023/11/12 08:54:23;;;;;;;35.10;12.68;;;;;;;6.92;100.00;100648.94;6071974;19;20014;-73
2023/11/12 08:56:30;;;;;;;27.65;15.40;;;;;;;7.04;100.00;100650.34;6074884;19;20007;-74
2023/11/12 08:58:38;;;;;;;30.42;13.90;;;;;;;7.16;100.00;100646.53;6072816;19;20014;-72
2023/11/12 09:00:43;;;;;;;34.55;13.98;;;;;;;7.22;100.00;100652.44;6076287;19;19998;-73
2023/11/12 09:02:51;;;;;;;25.92;13.70;;;;;;;7.30;100.00;100640.91;6075755;19;20007;-73
2023/11/12 09:04:59;;;;;;;28.70;12.57;;;;;;;7.37;100.00;100645.91;6075580;19;20379;-70
2023/11/12 09:07:04;;;;;;;31.00;12.13;;;;;;;7.35;100.00;100650.31;6077423;19;20474;-73
2023/11/12 09:09:09;;;;;;;26.08;14.23;;;;;;;7.38;100.00;100647.59;6075984;19;20074;-73
2023/11/12 09:11:13;;;;;;;24.30;12.10;;;;;;;7.46;100.00;100657.81;6074330;19;20007;-72
2023/11/12 09:13:21;;;;;;;24.73;11.43;;;;;;;7.54;100.00;100649.75;6078600;19;20257;-70
2023/11/12 09:15:26;;;;;;;28.55;11.82;;;;;;;7.54;100.00;100647.13;6067786;19;20709;-72
2023/11/12 09:17:31;;;;;;;30.15;12.25;;;;;;;7.56;100.00;100643.56;6072944;19;20010;-70
2023/11/12 09:19:36;;;;;;;26.83;11.27;;;;;;;7.59;100.00;100645.22;6075336;19;20024;-70
2023/11/12 09:21:44;;;;;;;28.08;10.85;;;;;;;7.51;100.00;100649.84;6078112;19;20050;-71
2023/11/12 09:23:50;;;;;;;26.58;10.88;;;;;;;7.60;100.00;100657.41;6074370;19;20027;-71
2023/11/12 09:25:55;;;;;;;22.05;11.43;;;;;;;7.58;100.00;100657.47;6081098;19;20003;-75
2023/11/12 09:28:00;;;;;;;26.88;11.50;;;;;;;7.67;100.00;100664.16;6082685;19;20536;-71
2023/11/12 09:30:08;;;;;;;24.02;10.80;;;;;;;7.67;100.00;100666.78;6084955;19;20602;-78
2023/11/12 09:32:14;;;;;;;28.20;11.93;;;;;;;7.83;100.00;100668.00;6081481;19;20034;-76
2023/11/12 09:34:19;;;;;;;27.80;12.82;;;;;;;7.80;100.00;100670.72;6087218;19;20297;-76
2023/11/12 09:36:24;;;;;;;27.25;13.32;;;;;;;7.81;100.00;100666.31;6085954;19;20043;-76